Time;durP1;ratioP1;P1;durP2;ratioP2;P2;SDS_P1;SDS_P2;PMS_P1;PMS_P2;Temp;Humidity;BMP_temperature;BMP_pressure;BME280_temperature;BME280_humidity;BME280_pressure;Samples;Min_cycle;Max_cycle;Signal;HPM_P1;HPM_P2
2022/07/08 00:02:50;;;;;;;3.45;0.77;;;21.50;60.20;;;;;;10407515;28;20036;-60
2022/07/08 00:07:51;;;;;;;2.20;1.10;;;21.50;60.20;;;;;;10399234;28;20105;-59
2022/07/08 00:12:52;;;;;;;1.20;0.80;;;21.50;60.10;;;;;;10377119;28;20034;-59
2022/07/08 00:17:52;;;;;;;2.33;1.48;;;21.50;60.20;;;;;;10371414;28;20057;-60
2022/07/08 00:22:53;;;;;;;5.00;1.40;;;21.50;60.10;;;;;;10409930;28;20407;-60
2022/07/08 00:27:54;;;;;;;2.22;1.58;;;21.50;60.10;;;;;;10413288;28;20480;-60
2022/07/08 00:32:55;;;;;;;2.58;0.75;;;21.50;60.20;;;;;;10399097;28;20444;-60
2022/07/08 00:37:56;;;;;;;5.25;1.27;;;21.50;60.10;;;;;;10412480;28;20136;-60
2022/07/08 00:42:56;;;;;;;3.63;1.17;;;21.40;60.00;;;;;;10384782;28;20037;-59
2022/07/08 00:47:57;;;;;;;1.45;0.65;;;21.40;60.00;;;;;;10397255;28;20026;-60
2022/07/08 00:52:58;;;;;;;2.50;1.17;;;21.40;60.00;;;;;;10386230;28;20536;-60
2022/07/08 00:57:59;;;;;;;1.83;0.70;;;21.40;60.00;;;;;;10370269;28;20504;-60
2022/07/08 01:03:01;;;;;;;1.90;0.80;;;21.40;59.90;;;;;;10373220;28;20034;-61
2022/07/08 01:08:01;;;;;;;2.63;1.00;;;21.40;59.90;;;;;;10365551;28;20033;-60
2022/07/08 01:13:03;;;;;;;1.42;0.70;;;21.40;59.90;;;;;;10369341;28;20503;-60
2022/07/08 01:18:04;;;;;;;3.85;1.35;;;21.40;59.90;;;;;;10371766;28;20525;-60
2022/07/08 01:23:05;;;;;;;2.40;0.80;;;21.40;59.80;;;;;;10407929;28;20033;-59
2022/07/08 01:28:05;;;;;;;2.15;1.00;;;21.40;59.90;;;;;;10371121;28;20105;-60
2022/07/08 01:33:06;;;;;;;2.78;0.77;;;21.40;59.90;;;;;;10381914;28;20038;-58
2022/07/08 01:38:07;;;;;;;2.80;1.08;;;21.40;59.80;;;;;;10368158;28;20049;-60
2022/07/08 01:43:08;;;;;;;3.60;1.15;;;21.40;59.90;;;;;;10368144;28;20033;-60
2022/07/08 01:48:09;;;;;;;2.13;0.90;;;21.40;59.80;;;;;;10373317;28;20388;-59
2022/07/08 01:53:11;;;;;;;1.30;0.70;;;21.40;59.80;;;;;;10389466;28;20116;-58
2022/07/08 01:58:12;;;;;;;2.80;1.02;;;21.40;59.70;;;;;;10386488;28;20080;-60
2022/07/08 02:03:13;;;;;;;2.63;0.75;;;21.30;59.80;;;;;;10402856;28;20037;-57
2022/07/08 02:08:14;;;;;;;2.88;1.20;;;21.30;59.80;;;;;;10384616;28;20030;-59
2022/07/08 02:13:16;;;;;;;2.20;1.00;;;21.30;59.80;;;;;;10407091;28;20400;-60
2022/07/08 02:18:17;;;;;;;2.08;1.10;;;21.30;59.70;;;;;;10382463;28;20025;-60
2022/07/08 02:23:17;;;;;;;3.83;1.40;;;21.30;59.70;;;;;;10366715;28;20030;-60
2022/07/08 02:28:18;;;;;;;1.98;0.82;;;21.30;59.70;;;;;;10368001;28;20105;-60
2022/07/08 02:33:19;;;;;;;2.17;1.05;;;21.30;59.70;;;;;;10379870;28;20208;-62
2022/07/08 02:38:20;;;;;;;3.17;1.63;;;21.30;59.70;;;;;;10371216;28;20049;-60
2022/07/08 02:43:21;;;;;;;1.85;0.70;;;21.30;59.70;;;;;;10380857;28;20037;-60
2022/07/08 02:48:21;;;;;;;2.47;1.83;;;21.30;60.30;;;;;;10389125;28;20111;-60
2022/07/08 02:53:23;;;;;;;3.78;0.90;;;21.30;59.60;;;;;;10385492;28;20029;-60
2022/07/08 02:58:24;;;;;;;4.32;1.10;;;21.30;59.60;;;;;;10396097;28;20030;-60
2022/07/08 03:03:24;;;;;;;1.23;0.77;;;21.30;59.60;;;;;;10366092;28;20707;-59
2022/07/08 03:08:25;;;;;;;1.85;0.70;;;21.30;59.60;;;;;;10365908;28;20041;-60
2022/07/08 03:13:26;;;;;;;2.22;1.25;;;21.20;59.60;;;;;;10366323;28;20030;-60
2022/07/08 03:18:26;;;;;;;3.03;0.95;;;21.20;59.60;;;;;;10385038;28;20121;-60
2022/07/08 03:23:27;;;;;;;2.15;1.20;;;21.20;59.50;;;;;;10386456;28;20030;-60
2022/07/08 03:28:29;;;;;;;3.85;1.05;;;21.20;59.60;;;;;;10392613;28;20041;-60
2022/07/08 03:33:29;;;;;;;1.58;0.82;;;21.20;59.50;;;;;;10396696;28;20030;-60
2022/07/08 03:38:30;;;;;;;2.60;0.82;;;21.20;59.50;;;;;;10373213;28;20509;-58
2022/07/08 03:43:31;;;;;;;2.03;1.10;;;21.20;59.80;;;;;;10406145;28;20116;-60
2022/07/08 03:48:31;;;;;;;1.30;1.00;;;21.20;59.50;;;;;;10413491;28;20040;-60
2022/07/08 03:53:32;;;;;;;3.60;1.38;;;21.20;59.60;;;;;;10384079;28;20030;-60
2022/07/08 03:58:34;;;;;;;1.98;0.88;;;21.20;59.50;;;;;;10405873;28;20124;-60
2022/07/08 04:03:35;;;;;;;2.45;1.10;;;21.20;59.60;;;;;;10386044;28;20390;-59
2022/07/08 04:08:36;;;;;;;3.63;1.05;;;21.20;59.80;;;;;;10387109;28;20030;-60
2022/07/08 04:13:40;;;;;;;1.92;0.95;;;21.20;59.80;;;;;;10383210;28;20026;-59
2022/07/08 04:18:42;;;;;;;2.33;1.33;;;21.20;59.70;;;;;;10385746;28;20038;-60
2022/07/08 04:23:43;;;;;;;2.45;0.75;;;21.20;59.70;;;;;;10371251;28;20429;-60
2022/07/08 04:28:43;;;;;;;2.17;0.85;;;21.20;59.90;;;;;;10373717;28;20029;-60
2022/07/08 04:33:44;;;;;;;2.40;1.48;;;21.20;60.00;;;;;;10404861;28;20029;-59
2022/07/08 04:38:45;;;;;;;2.05;0.95;;;21.20;60.10;;;;;;10384190;28;20128;-60
2022/07/08 04:43:46;;;;;;;2.22;1.35;;;21.20;60.10;;;;;;10378106;28;20476;-60
2022/07/08 04:48:46;;;;;;;6.40;2.10;;;21.20;60.20;;;;;;10396339;28;20032;-59
2022/07/08 04:53:47;;;;;;;9.50;2.63;;;21.20;61.50;;;;;;10397703;28;20380;-58
2022/07/08 04:58:48;;;;;;;5.65;2.90;;;21.30;61.40;;;;;;10385147;28;20570;-59
2022/07/08 05:03:49;;;;;;;12.30;2.95;;;21.40;61.60;;;;;;10384030;28;20370;-61
2022/07/08 05:08:49;;;;;;;7.68;2.70;;;21.40;61.80;;;;;;10385765;28;20026;-59
2022/07/08 05:13:50;;;;;;;13.25;4.00;;;21.40;62.10;;;;;;10382513;28;20529;-58
2022/07/08 05:18:51;;;;;;;16.80;3.92;;;21.50;63.10;;;;;;10353102;28;20465;-59
2022/07/08 05:23:51;;;;;;;8.27;3.47;;;21.40;63.00;;;;;;10382085;28;20030;-59
2022/07/08 05:28:52;;;;;;;10.68;2.95;;;21.50;63.00;;;;;;10389766;28;20369;-61
2022/07/08 05:33:53;;;;;;;8.98;2.67;;;21.40;62.90;;;;;;10382774;28;20033;-58
2022/07/08 05:38:54;;;;;;;6.88;2.15;;;21.30;61.90;;;;;;10369868;28;20088;-60
2022/07/08 05:43:54;;;;;;;12.40;3.22;;;21.30;61.70;;;;;;10367884;28;20030;-58
2022/07/08 05:48:55;;;;;;;15.30;3.70;;;21.30;61.30;;;;;;10398638;28;20095;-59
2022/07/08 05:53:56;;;;;;;25.88;4.65;;;21.20;61.90;;;;;;10369384;28;20080;-57
2022/07/08 05:58:56;;;;;;;15.57;3.50;;;21.20;61.80;;;;;;10374028;28;20370;-57
2022/07/08 06:03:57;;;;;;;8.27;2.92;;;21.20;61.40;;;;;;10365262;28;20040;-56
2022/07/08 06:08:57;;;;;;;11.80;3.42;;;21.20;61.30;;;;;;10395630;28;20104;-57
2022/07/08 06:13:59;;;;;;;19.42;3.17;;;21.20;61.10;;;;;;10382318;28;20394;-58
2022/07/08 06:18:59;;;;;;;9.32;2.40;;;21.20;60.80;;;;;;10379325;28;20036;-57
2022/07/08 06:24:00;;;;;;;8.57;2.90;;;21.20;60.70;;;;;;10388527;28;20120;-59
2022/07/08 06:29:01;;;;;;;9.80;2.70;;;21.20;60.80;;;;;;10387834;28;20342;-58
2022/07/08 06:34:02;;;;;;;10.85;2.85;;;21.20;60.60;;;;;;10402309;28;20021;-57
2022/07/08 06:39:03;;;;;;;8.55;2.40;;;21.10;60.50;;;;;;10390343;28;20042;-59
2022/07/08 06:44:04;;;;;;;13.35;2.97;;;21.20;61.00;;;;;;10387894;28;20580;-55
2022/07/08 06:49:05;;;;;;;21.83;4.10;;;21.20;60.70;;;;;;10389186;28;20025;-57
2022/07/08 06:59:25;;;;;;;9.27;2.63;;;21.20;61.20;;;;;;10384479;28;20049;-58
2022/07/08 07:04:28;;;;;;;14.15;3.17;;;21.20;60.70;;;;;;10402165;28;20034;-56
2022/07/08 07:09:29;;;;;;;9.13;2.67;;;21.20;60.80;;;;;;10406910;28;20061;-58
2022/07/08 07:14:30;;;;;;;8.48;3.22;;;21.20;60.70;;;;;;10400764;28;20092;-58
2022/07/08 07:19:31;;;;;;;10.02;2.47;;;21.20;60.80;;;;;;10401633;28;20112;-55
2022/07/08 07:24:31;;;;;;;9.60;2.85;;;21.20;61.20;;;;;;10376519;28;20036;-56
2022/07/08 07:29:33;;;;;;;11.65;2.33;;;21.30;61.20;;;;;;10397822;28;20033;-57
2022/07/08 07:34:33;;;;;;;6.82;2.55;;;21.30;61.40;;;;;;10397547;28;20104;-58
2022/07/08 07:39:34;;;;;;;5.93;1.95;;;21.30;61.40;;;;;;10402825;28;20060;-59
2022/07/08 07:44:35;;;;;;;9.32;2.35;;;21.30;60.60;;;;;;10400228;28;20392;-58
2022/07/08 07:49:35;;;;;;;11.00;3.10;;;21.30;61.20;;;;;;10421885;28;20032;-58
2022/07/08 07:54:36;;;;;;;6.13;2.83;;;21.30;61.40;;;;;;10373689;28;20022;-58
2022/07/08 07:59:37;;;;;;;4.43;1.85;;;21.30;61.20;;;;;;10378766;28;20108;-57
2022/07/08 08:04:37;;;;;;;7.72;2.92;;;21.30;60.80;;;;;;10379903;28;20034;-58
2022/07/08 08:09:38;;;;;;;6.30;2.08;;;21.30;60.80;;;;;;10373073;28;20440;-57
2022/07/08 08:14:39;;;;;;;10.77;2.30;;;21.30;60.80;;;;;;10389880;28;20087;-57
2022/07/08 08:19:40;;;;;;;5.68;2.55;;;21.30;60.70;;;;;;10395669;28;20033;-59
2022/07/08 08:24:42;;;;;;;8.52;2.47;;;21.30;60.40;;;;;;10413143;28;20037;-59
2022/07/08 08:29:43;;;;;;;8.05;1.98;;;21.30;60.50;;;;;;10386699;28;20699;-58
2022/07/08 08:34:43;;;;;;;6.40;2.00;;;21.40;60.70;;;;;;10401173;28;20052;-58
2022/07/08 08:39:44;;;;;;;5.85;1.90;;;21.40;62.60;;;;;;10390926;28;20049;-57
2022/07/08 08:44:49;;;;;;;5.85;1.83;;;21.40;61.30;;;;;;10410919;28;20034;-56
2022/07/08 08:49:52;;;;;;;9.43;2.75;;;21.40;61.30;;;;;;10392180;28;20033;-57
2022/07/08 08:54:54;;;;;;;10.23;2.60;;;21.40;61.20;;;;;;10390078;28;21073;-56
2022/07/08 08:59:56;;;;;;;10.10;2.13;;;21.40;61.30;;;;;;10412019;28;20033;-58
2022/07/08 09:04:56;;;;;;;7.60;2.10;;;21.40;61.00;;;;;;10397145;28;20116;-56
2022/07/08 09:15:57;;;;;;;7.63;2.58;;;21.40;61.20;;;;;;10374285;28;20668;-58
2022/07/08 09:20:59;;;;;;;6.97;1.95;;;21.40;61.00;;;;;;10383010;28;20045;-57
2022/07/08 09:26:05;;;;;;;9.85;2.55;;;21.40;60.90;;;;;;10395718;28;20449;-57
2022/07/08 09:31:10;;;;;;;6.93;2.35;;;21.40;61.00;;;;;;10389125;28;20056;-57
2022/07/08 09:36:12;;;;;;;7.82;1.98;;;21.40;61.00;;;;;;10395611;28;20076;-58
2022/07/08 09:41:15;;;;;;;5.85;1.90;;;21.40;60.70;;;;;;10393028;28;20083;-57
2022/07/08 09:46:16;;;;;;;4.95;1.65;;;21.50;61.50;;;;;;10369256;28;20026;-58
2022/07/08 09:51:17;;;;;;;5.63;1.38;;;21.50;60.80;;;;;;10384654;28;20083;-57
2022/07/08 09:56:25;;;;;;;5.18;1.67;;;21.50;60.80;;;;;;10405612;28;20151;-58
2022/07/08 10:01:26;;;;;;;6.80;2.33;;;21.50;60.80;;;;;;10409906;28;20032;-58
2022/07/08 10:06:27;;;;;;;6.00;1.50;;;21.50;60.70;;;;;;10409227;28;20500;-58
2022/07/08 10:11:28;;;;;;;2.97;1.58;;;21.60;60.90;;;;;;10381374;28;20035;-57
2022/07/08 10:16:31;;;;;;;7.47;2.00;;;21.60;60.90;;;;;;10379517;28;20037;-58
2022/07/08 10:21:34;;;;;;;9.70;1.50;;;21.60;60.90;;;;;;10380952;28;20052;-58
2022/07/08 10:26:40;;;;;;;3.22;1.55;;;21.60;60.80;;;;;;10394500;28;20420;-59
2022/07/08 10:31:52;;;;;;;5.82;1.40;;;21.60;60.80;;;;;;10393886;28;20045;-57
2022/07/08 10:36:53;;;;;;;3.53;1.58;;;21.60;60.80;;;;;;10393940;28;20049;-56
2022/07/08 10:42:03;;;;;;;4.32;1.30;;;21.70;66.90;;;;;;10381655;28;20064;-57
2022/07/08 10:47:09;;;;;;;5.28;1.52;;;21.70;61.40;;;;;;10402532;28;20092;-57
2022/07/08 10:52:10;;;;;;;7.03;1.95;;;21.70;61.60;;;;;;10395025;28;20030;-57
2022/07/08 10:57:28;;;;;;;3.97;1.95;;;21.70;61.40;;;;;;10395239;28;20041;-56
2022/07/08 11:02:29;;;;;;;4.80;2.08;;;21.70;61.20;;;;;;10389097;28;20088;-54
2022/07/08 11:07:30;;;;;;;3.08;1.73;;;21.70;60.80;;;;;;10366932;28;20033;-57
2022/07/08 11:12:33;;;;;;;5.85;1.85;;;21.70;60.80;;;;;;10367852;28;20030;-57
2022/07/08 11:17:36;;;;;;;6.15;2.50;;;21.70;60.20;;;;;;10373103;28;20057;-58
2022/07/08 11:22:39;;;;;;;5.82;2.05;;;21.70;59.80;;;;;;10376458;28;20029;-59
2022/07/08 11:27:41;;;;;;;15.77;2.97;;;21.70;59.90;;;;;;10374655;28;20065;-56
2022/07/08 11:32:47;;;;;;;19.15;4.28;;;21.80;59.60;;;;;;10366553;28;20034;-58
2022/07/08 11:37:47;;;;;;;23.38;4.00;;;21.80;60.70;;;;;;10387881;28;20125;-58
2022/07/08 11:42:48;;;;;;;18.83;3.60;;;21.80;61.00;;;;;;10388198;28;20030;-59
2022/07/08 11:47:49;;;;;;;18.15;3.45;;;21.80;61.70;;;;;;10366689;28;20653;-59
2022/07/08 11:52:50;;;;;;;14.95;3.22;;;21.80;61.40;;;;;;10405657;28;20033;-59
2022/07/08 11:57:51;;;;;;;7.30;2.30;;;21.80;61.30;;;;;;10403913;28;20439;-58
2022/07/08 12:02:51;;;;;;;5.32;2.33;;;21.80;60.60;;;;;;10384660;28;20088;-59
2022/07/08 12:07:54;;;;;;;10.82;2.38;;;21.80;60.60;;;;;;10364796;28;20018;-59
2022/07/08 12:12:57;;;;;;;6.05;1.83;;;21.80;60.90;;;;;;10386552;28;20044;-56
2022/07/08 12:17:59;;;;;;;7.40;2.42;;;21.70;60.70;;;;;;10399309;28;20037;-58
2022/07/08 12:23:00;;;;;;;12.52;2.80;;;21.70;60.70;;;;;;10387263;28;20220;-62
2022/07/08 12:28:02;;;;;;;14.88;2.60;;;21.70;61.80;;;;;;10378111;28;20050;-59
2022/07/08 12:33:04;;;;;;;12.48;3.60;;;21.80;62.10;;;;;;10393810;28;20028;-58
2022/07/08 12:38:10;;;;;;;22.60;3.50;;;21.90;62.20;;;;;;10385887;28;20128;-58
2022/07/08 12:43:13;;;;;;;14.30;3.47;;;22.00;62.40;;;;;;10383129;28;20087;-58
2022/07/08 12:48:16;;;;;;;22.02;3.65;;;22.00;62.70;;;;;;10396592;28;20128;-59
2022/07/08 12:53:16;;;;;;;17.27;3.47;;;22.00;63.00;;;;;;10397724;28;20034;-61
2022/07/08 12:58:19;;;;;;;15.07;3.72;;;22.10;63.40;;;;;;10386537;28;20627;-59
2022/07/08 13:03:20;;;;;;;12.05;3.28;;;22.00;63.70;;;;;;10389243;28;20038;-59
2022/07/08 13:08:21;;;;;;;18.73;3.70;;;22.10;63.60;;;;;;10370067;28;20120;-53
2022/07/08 13:13:22;;;;;;;15.45;3.53;;;22.10;64.00;;;;;;10390956;28;20539;-55
2022/07/08 13:18:22;;;;;;;15.55;3.38;;;22.10;63.90;;;;;;10385146;28;20037;-57
2022/07/08 13:23:23;;;;;;;20.92;4.22;;;22.00;64.00;;;;;;10388419;28;20108;-57
2022/07/08 13:28:24;;;;;;;24.73;4.60;;;22.10;64.30;;;;;;10384583;28;20018;-57
2022/07/08 13:33:25;;;;;;;15.38;4.22;;;22.00;64.70;;;;;;10381651;28;20036;-57
2022/07/08 13:38:26;;;;;;;14.80;3.33;;;22.00;64.10;;;;;;10384279;28;20041;-57
2022/07/08 13:43:26;;;;;;;25.70;3.67;;;22.00;64.00;;;;;;10382533;28;20029;-56
2022/07/08 13:48:27;;;;;;;8.57;3.05;;;22.00;63.30;;;;;;10392440;28;20108;-58
2022/07/08 13:53:29;;;;;;;10.30;2.80;;;22.00;62.90;;;;;;10383190;28;20140;-57
2022/07/08 13:58:29;;;;;;;4.97;2.05;;;22.00;62.10;;;;;;10368720;28;20033;-57
2022/07/08 14:03:30;;;;;;;4.47;1.70;;;22.00;61.60;;;;;;10393904;28;20037;-58
2022/07/08 14:08:31;;;;;;;8.55;2.05;;;22.00;61.40;;;;;;10409371;28;20025;-58
2022/07/08 14:13:33;;;;;;;4.82;1.85;;;22.00;60.30;;;;;;10405383;28;20819;-58
2022/07/08 14:18:34;;;;;;;6.18;1.77;;;22.00;60.20;;;;;;10369760;28;20022;-58
2022/07/08 14:23:34;;;;;;;4.55;1.83;;;22.00;60.80;;;;;;10379213;28;20036;-59
2022/07/08 14:28:35;;;;;;;6.18;2.13;;;22.00;60.00;;;;;;10379568;28;20025;-57
2022/07/08 14:33:36;;;;;;;6.43;2.00;;;22.10;59.70;;;;;;10366695;28;20030;-58
2022/07/08 14:38:36;;;;;;;4.10;1.80;;;22.10;59.30;;;;;;10382899;28;20430;-56
2022/07/08 14:43:37;;;;;;;3.92;2.15;;;22.00;59.30;;;;;;10380585;28;20038;-58
2022/07/08 14:48:38;;;;;;;3.83;2.13;;;22.00;58.80;;;;;;10381541;28;20030;-58
2022/07/08 14:53:39;;;;;;;4.07;1.83;;;22.00;58.90;;;;;;10380504;28;20323;-57
2022/07/08 14:58:39;;;;;;;5.53;2.15;;;22.00;59.80;;;;;;10384870;28;20405;-57
2022/07/08 15:03:40;;;;;;;5.50;2.47;;;22.00;59.80;;;;;;10378702;28;20547;-59
2022/07/08 15:08:41;;;;;;;2.47;1.73;;;22.00;60.00;;;;;;10387763;28;20869;-58
2022/07/08 15:13:42;;;;;;;4.40;2.33;;;22.00;60.20;;;;;;10384470;28;20512;-57
2022/07/08 15:18:42;;;;;;;5.43;2.33;;;22.00;60.60;;;;;;10393432;28;20132;-55
2022/07/08 15:23:43;;;;;;;14.82;4.10;;;22.00;60.70;;;;;;10392127;28;20042;-57
2022/07/08 15:28:44;;;;;;;7.20;2.03;;;22.00;60.80;;;;;;10406066;28;20572;-56
2022/07/08 15:33:44;;;;;;;10.68;3.10;;;21.90;60.70;;;;;;10391088;28;20034;-58
2022/07/08 15:38:45;;;;;;;11.73;2.92;;;21.90;61.00;;;;;;10389109;28;20049;-56
2022/07/08 15:43:46;;;;;;;19.38;3.50;;;22.00;61.10;;;;;;10397031;28;20037;-58
2022/07/08 15:48:47;;;;;;;15.88;3.28;;;22.00;61.60;;;;;;10403641;28;20072;-58
2022/07/08 15:53:48;;;;;;;15.82;3.53;;;22.00;61.70;;;;;;10394118;28;20030;-58
2022/07/08 15:58:49;;;;;;;16.35;3.10;;;22.00;61.80;;;;;;10403510;28;20063;-58
2022/07/08 16:03:50;;;;;;;9.13;3.42;;;22.00;62.10;;;;;;10377048;28;20042;-55
2022/07/08 16:08:52;;;;;;;11.65;3.20;;;22.10;63.00;;;;;;10383690;28;20477;-57
2022/07/08 16:13:53;;;;;;;6.90;3.13;;;22.30;62.80;;;;;;10397621;28;20683;-57
2022/07/08 16:18:54;;;;;;;6.28;2.40;;;22.20;62.90;;;;;;10411442;28;20036;-56
2022/07/08 16:23:55;;;;;;;13.25;3.03;;;22.20;62.90;;;;;;10413176;28;20032;-57
2022/07/08 16:28:56;;;;;;;6.30;2.63;;;22.10;62.60;;;;;;10412691;28;20071;-58
2022/07/08 16:33:56;;;;;;;5.60;2.08;;;22.20;62.60;;;;;;10412622;28;20036;-58
2022/07/08 16:38:57;;;;;;;6.00;3.03;;;22.10;61.60;;;;;;10376737;28;20054;-57
2022/07/08 16:43:59;;;;;;;7.00;1.98;;;22.10;61.70;;;;;;10373160;28;20040;-57
2022/07/08 16:48:59;;;;;;;5.93;2.92;;;22.10;61.20;;;;;;10381074;28;20029;-59
2022/07/08 16:54:01;;;;;;;5.40;2.20;;;22.10;61.60;;;;;;10405949;28;20041;-58
2022/07/08 16:59:02;;;;;;;6.50;2.38;;;22.00;61.50;;;;;;10412278;28;20034;-58
2022/07/08 17:04:03;;;;;;;9.98;2.70;;;22.00;61.30;;;;;;10393907;28;20385;-58
2022/07/08 17:09:03;;;;;;;4.80;2.13;;;22.00;61.00;;;;;;10411382;28;20047;-58
2022/07/08 17:14:05;;;;;;;5.70;3.10;;;22.00;61.30;;;;;;10411047;28;20104;-58
2022/07/08 17:19:06;;;;;;;6.75;2.42;;;22.00;61.70;;;;;;10409218;28;20040;-59
2022/07/08 17:24:07;;;;;;;6.40;2.42;;;22.00;61.50;;;;;;10385753;28;20026;-59
2022/07/08 17:34:27;;;;;;;6.35;2.60;;;22.10;61.30;;;;;;10386811;28;20041;-59
2022/07/08 17:39:27;;;;;;;10.05;2.78;;;22.10;61.80;;;;;;10376374;28;20497;-57
2022/07/08 17:44:28;;;;;;;5.78;2.58;;;22.10;61.90;;;;;;10370946;28;20122;-60
2022/07/08 17:49:29;;;;;;;13.00;3.40;;;22.10;61.80;;;;;;10388373;28;20511;-58
2022/07/08 17:54:30;;;;;;;10.52;4.47;;;22.10;61.70;;;;;;10369055;28;20475;-59
2022/07/08 17:59:31;;;;;;;7.80;2.60;;;22.10;61.70;;;;;;10378036;28;20034;-60
2022/07/08 18:04:36;;;;;;;11.32;2.90;;;22.00;61.70;;;;;;10367564;28;20501;-59
2022/07/08 18:09:37;;;;;;;7.50;2.78;;;22.00;61.80;;;;;;10381358;28;20038;-57
2022/07/08 18:14:38;;;;;;;14.02;2.95;;;22.00;62.10;;;;;;10381606;28;20616;-59
2022/07/08 18:19:38;;;;;;;10.10;2.65;;;22.00;62.30;;;;;;10388586;28;20032;-56
2022/07/08 18:24:39;;;;;;;6.10;2.75;;;22.00;62.40;;;;;;10393545;28;20037;-58
2022/07/08 18:29:40;;;;;;;6.75;2.28;;;22.00;62.60;;;;;;10408088;28;20025;-58
2022/07/08 18:34:42;;;;;;;4.65;2.13;;;22.00;62.60;;;;;;10402108;28;20029;-58
2022/07/08 18:39:43;;;;;;;5.18;2.10;;;22.00;62.80;;;;;;10365810;28;20057;-59
2022/07/08 18:44:44;;;;;;;6.30;3.13;;;22.00;62.80;;;;;;10365412;28;20045;-57
2022/07/08 18:49:45;;;;;;;4.40;2.28;;;22.00;62.80;;;;;;10385391;28;20030;-57
2022/07/08 18:54:45;;;;;;;6.03;2.47;;;22.00;62.40;;;;;;10380909;28;20819;-57
2022/07/08 18:59:46;;;;;;;5.25;2.08;;;22.00;62.30;;;;;;10405758;28;20698;-61
2022/07/08 19:04:47;;;;;;;5.35;2.38;;;22.00;63.00;;;;;;10390567;28;20034;-58
2022/07/08 19:09:48;;;;;;;7.30;3.08;;;22.00;63.00;;;;;;10416013;28;20029;-59
2022/07/08 19:14:48;;;;;;;4.53;2.35;;;22.00;62.90;;;;;;10403362;28;20124;-58
2022/07/08 19:19:49;;;;;;;3.17;2.22;;;22.00;63.10;;;;;;10396669;28;20113;-59
2022/07/08 19:24:51;;;;;;;5.28;3.00;;;22.00;62.80;;;;;;10377402;28;20124;-57
2022/07/08 19:29:53;;;;;;;3.38;2.55;;;22.00;62.70;;;;;;10408634;28;20037;-57
2022/07/08 19:34:53;;;;;;;3.55;2.70;;;21.90;63.40;;;;;;10414978;28;20026;-57
2022/07/08 19:39:54;;;;;;;3.35;1.98;;;21.90;63.00;;;;;;10400968;28;20033;-57
2022/07/08 19:44:57;;;;;;;3.13;2.08;;;21.90;62.80;;;;;;10392799;28;20034;-56
2022/07/08 19:49:57;;;;;;;3.83;2.40;;;21.90;62.90;;;;;;10398985;28;20034;-56
2022/07/08 19:54:58;;;;;;;5.15;2.25;;;21.90;62.90;;;;;;10400592;28;20379;-56
2022/07/08 19:59:59;;;;;;;6.35;2.72;;;21.90;62.90;;;;;;10400976;28;20032;-56
2022/07/08 20:05:00;;;;;;;7.43;3.22;;;22.00;63.80;;;;;;10400355;28;20036;-56
2022/07/08 20:10:00;;;;;;;6.68;2.72;;;22.00;63.70;;;;;;10391610;28;20392;-55
2022/07/08 20:15:01;;;;;;;6.13;2.65;;;22.00;64.00;;;;;;10395444;28;20034;-56
2022/07/08 20:20:03;;;;;;;3.30;2.13;;;22.00;63.90;;;;;;10404649;28;20061;-56
2022/07/08 20:25:04;;;;;;;4.93;2.58;;;22.00;63.40;;;;;;10381091;28;20485;-56
2022/07/08 20:30:06;;;;;;;4.22;2.65;;;22.00;63.50;;;;;;10366008;28;20026;-56
2022/07/08 20:35:07;;;;;;;4.50;2.05;;;22.00;63.60;;;;;;10399569;28;20440;-56
2022/07/08 20:40:10;;;;;;;5.13;2.38;;;22.00;63.40;;;;;;10372375;28;20033;-55
2022/07/08 20:45:16;;;;;;;3.85;2.15;;;22.00;63.40;;;;;;10408964;28;20167;-56
2022/07/08 20:50:17;;;;;;;3.67;2.00;;;22.00;63.30;;;;;;10383562;28;20523;-55
2022/07/08 20:55:19;;;;;;;5.20;2.22;;;22.00;63.40;;;;;;10380743;28;20071;-54
2022/07/08 21:00:19;;;;;;;3.47;2.10;;;22.00;63.90;;;;;;10412327;28;20045;-56
2022/07/08 21:05:20;;;;;;;5.30;2.22;;;22.00;63.70;;;;;;10394443;28;20400;-55
2022/07/08 21:10:21;;;;;;;2.97;2.00;;;22.00;64.00;;;;;;10383179;28;20481;-56
2022/07/08 21:15:22;;;;;;;5.22;2.53;;;22.00;64.00;;;;;;10371307;28;20397;-55
2022/07/08 21:20:23;;;;;;;2.90;1.90;;;22.00;64.00;;;;;;10378902;28;20033;-56
2022/07/08 21:25:24;;;;;;;2.83;1.88;;;22.00;63.90;;;;;;10397131;28;20034;-54
2022/07/08 21:30:24;;;;;;;5.85;2.83;;;22.00;64.00;;;;;;10397032;28;20064;-56
2022/07/08 21:35:25;;;;;;;3.10;1.90;;;22.00;63.90;;;;;;10411101;28;20045;-56
2022/07/08 21:40:26;;;;;;;3.25;2.10;;;22.00;63.80;;;;;;10383887;28;20044;-55
2022/07/08 21:45:27;;;;;;;4.53;2.03;;;22.00;63.50;;;;;;10410382;28;20095;-57
2022/07/08 21:50:27;;;;;;;2.55;1.70;;;22.00;63.30;;;;;;10403961;28;20029;-55
2022/07/08 21:55:28;;;;;;;2.80;1.92;;;22.00;63.70;;;;;;10409466;28;20166;-56
2022/07/08 22:00:29;;;;;;;3.08;1.70;;;22.00;63.90;;;;;;10390980;28;20026;-55
2022/07/08 22:05:30;;;;;;;2.83;2.33;;;22.00;63.80;;;;;;10367882;28;20428;-56
2022/07/08 22:10:31;;;;;;;2.33;1.50;;;22.00;63.40;;;;;;10369206;28;20021;-56
2022/07/08 22:15:32;;;;;;;4.45;2.25;;;22.00;63.80;;;;;;10393694;28;20080;-55
2022/07/08 22:20:33;;;;;;;2.50;1.60;;;22.00;63.80;;;;;;10403469;28;20425;-54
2022/07/08 22:25:34;;;;;;;2.15;1.88;;;22.00;63.60;;;;;;10394230;28;20164;-56
2022/07/08 22:30:35;;;;;;;2.50;1.60;;;22.00;63.80;;;;;;10381385;28;20037;-56
2022/07/08 22:35:36;;;;;;;3.25;1.60;;;21.90;63.70;;;;;;10394356;28;20068;-56
2022/07/08 22:40:36;;;;;;;3.75;1.90;;;22.00;63.30;;;;;;10366966;28;20056;-55
2022/07/08 22:45:38;;;;;;;3.42;1.55;;;21.90;63.40;;;;;;10368126;28;20038;-55
2022/07/08 22:50:39;;;;;;;2.88;2.00;;;21.90;63.80;;;;;;10377294;28;20018;-56
2022/07/08 22:55:40;;;;;;;3.40;1.77;;;21.90;63.70;;;;;;10368111;28;20049;-55
2022/07/08 23:00:41;;;;;;;2.03;1.83;;;21.90;63.70;;;;;;10367634;28;20109;-56
2022/07/08 23:05:42;;;;;;;3.42;1.67;;;22.00;63.80;;;;;;10366155;28;20041;-56
2022/07/08 23:10:43;;;;;;;2.15;1.67;;;21.90;63.60;;;;;;10366551;28;20866;-56
2022/07/08 23:15:43;;;;;;;3.97;2.00;;;21.90;63.20;;;;;;10376307;28;20039;-55
2022/07/08 23:20:44;;;;;;;2.15;1.40;;;21.90;63.10;;;;;;10369393;28;20080;-54
2022/07/08 23:25:45;;;;;;;2.35;1.70;;;21.90;63.40;;;;;;10366035;28;20034;-54
2022/07/08 23:30:46;;;;;;;2.63;1.60;;;21.90;63.30;;;;;;10366701;28;20036;-54
2022/07/08 23:35:47;;;;;;;3.20;2.00;;;21.90;63.60;;;;;;10393424;28;20076;-56
2022/07/08 23:40:54;;;;;;;3.95;2.50;;;21.90;63.50;;;;;;10374183;28;20033;-57
2022/07/08 23:45:54;;;;;;;2.88;2.55;;;21.90;63.50;;;;;;10368091;28;20404;-61
2022/07/08 23:50:55;;;;;;;2.28;2.08;;;21.90;63.30;;;;;;10407220;28;20113;-56
2022/07/08 23:55:56;;;;;;;2.60;2.00;;;21.90;63.10;;;;;;10376755;28;20113;-55
